Time;durP1;ratioP1;P1;durP2;ratioP2;P2;SDS_P1;SDS_P2;PMS_P1;PMS_P2;Temp;Humidity;BMP_temperature;BMP_pressure;BME280_temperature;BME280_humidity;BME280_pressure;Samples;Min_cycle;Max_cycle;Signal;HPM_P1;HPM_P2
2022/11/21 00:00:50;;;;;;;5.68;1.73;;;;;;;8.24;99.96;93839.34;5058874;28;20033;-87
2022/11/21 00:03:16;;;;;;;4.63;2.10;;;;;;;8.20;100.00;93832.03;5058955;28;20039;-87
2022/11/21 00:05:44;;;;;;;4.47;2.30;;;;;;;8.20;100.00;93839.09;5059051;28;20425;-87
2022/11/21 00:08:11;;;;;;;4.85;2.38;;;;;;;8.04;100.00;93846.97;5059027;28;20076;-87
2022/11/21 00:10:37;;;;;;;4.57;2.47;;;;;;;7.60;100.00;93850.91;5042074;28;20123;-87
2022/11/21 00:13:04;;;;;;;8.25;3.20;;;;;;;7.26;100.00;93840.19;5058964;28;20035;-87
2022/11/21 00:15:29;;;;;;;7.40;2.60;;;;;;;7.16;100.00;93840.97;5059122;28;20341;-87
2022/11/21 00:17:54;;;;;;;5.80;2.70;;;;;;;7.24;100.00;93824.81;5059144;28;20140;-87
2022/11/21 00:20:21;;;;;;;6.35;2.72;;;;;;;7.39;100.00;93833.66;5076718;28;20028;-87
2022/11/21 00:22:47;;;;;;;4.75;2.28;;;;;;;7.30;100.00;93831.59;5058794;28;20078;-87
2022/11/21 00:25:13;;;;;;;5.03;2.35;;;;;;;7.48;100.00;93829.50;5059143;28;20028;-88
2022/11/21 00:27:39;;;;;;;3.72;2.38;;;;;;;7.58;100.00;93832.13;5042493;28;20127;-88
2022/11/21 00:30:06;;;;;;;3.75;1.98;;;;;;;7.71;100.00;93825.59;5062634;28;20056;-87
2022/11/21 00:32:31;;;;;;;5.05;2.15;;;;;;;7.91;100.00;93827.41;5062753;28;20056;-88
2022/11/21 00:34:56;;;;;;;3.42;1.90;;;;;;;8.06;100.00;93815.38;5062872;28;20028;-87
2022/11/21 00:37:22;;;;;;;3.38;1.77;;;;;;;7.87;100.00;93809.94;5046347;28;20429;-87
2022/11/21 00:39:47;;;;;;;2.50;1.80;;;;;;;8.00;100.00;93816.44;5062957;28;20024;-87
2022/11/21 00:42:13;;;;;;;2.95;1.80;;;;;;;8.11;100.00;93814.59;5062707;28;20040;-87
2022/11/21 00:44:38;;;;;;;4.60;2.38;;;;;;;7.54;100.00;93807.63;5062578;28;20029;-87
2022/11/21 00:47:04;;;;;;;4.80;2.15;;;;;;;7.41;100.00;93816.75;5062889;28;20397;-87
2022/11/21 00:49:29;;;;;;;3.20;1.80;;;;;;;7.34;100.00;93805.81;5062889;28;20111;-87
2022/11/21 00:51:54;;;;;;;4.97;2.25;;;;;;;7.36;100.00;93808.94;5062511;28;20121;-88
2022/11/21 00:54:20;;;;;;;4.18;1.95;;;;;;;7.28;100.00;93810.22;5062516;28;20024;-88
2022/11/21 00:56:46;;;;;;;6.03;1.92;;;;;;;7.45;100.00;93807.34;5062657;28;20051;-87
2022/11/21 00:59:11;;;;;;;3.42;1.85;;;;;;;7.47;100.00;93797.47;5062617;28;20024;-87
2022/11/21 01:01:36;;;;;;;3.65;2.08;;;;;;;7.69;100.00;93793.03;5079983;28;20036;-88
2022/11/21 01:04:02;;;;;;;7.85;2.40;;;;;;;7.32;100.00;93789.66;5062203;28;20032;-87
2022/11/21 01:06:28;;;;;;;3.65;1.95;;;;;;;7.11;100.00;93794.06;5080050;28;20025;-88
2022/11/21 01:08:53;;;;;;;5.97;2.30;;;;;;;7.43;100.00;93795.63;5062344;28;20131;-87
2022/11/21 01:11:19;;;;;;;4.43;2.10;;;;;;;7.66;100.00;93794.31;5080163;28;20421;-87
2022/11/21 01:13:45;;;;;;;2.78;1.63;;;;;;;7.74;100.00;93799.00;5062116;28;20028;-87
2022/11/21 01:16:15;;;;;;;3.63;1.88;;;;;;;7.75;100.00;93803.19;5062382;28;20110;-87
2022/11/21 01:18:41;;;;;;;6.40;2.83;;;;;;;7.75;100.00;93813.63;5061753;28;20032;-87
2022/11/21 01:21:21;;;;;;;7.32;3.17;;;;;;;7.93;100.00;93808.91;5045111;28;20028;-87
2022/11/21 01:23:47;;;;;;;7.65;3.22;;;;;;;7.97;100.00;93809.91;5061990;28;20029;-87
2022/11/21 01:26:15;;;;;;;5.25;2.28;;;;;;;7.95;100.00;93804.19;5045453;28;20028;-87
2022/11/21 01:28:41;;;;;;;6.88;2.33;;;;;;;7.99;100.00;93797.38;5061904;28;20029;-87
2022/11/21 01:31:16;;;;;;;6.53;2.95;;;;;;;7.92;100.00;93808.09;5044626;28;20035;-87
2022/11/21 01:33:43;;;;;;;5.70;2.58;;;;;;;7.95;100.00;93804.19;5061516;28;20035;-87
2022/11/21 01:36:22;;;;;;;5.45;2.88;;;;;;;7.80;100.00;93809.44;5233090;22;20043;-89
2022/11/21 01:38:49;;;;;;;4.60;2.85;;;;;;;7.68;100.00;93810.47;5065278;28;20028;-88
2022/11/21 01:41:18;;;;;;;8.85;3.00;;;;;;;7.95;100.00;93822.44;5064421;28;20050;-90
2022/11/21 01:43:44;;;;;;;5.97;2.70;;;;;;;8.01;100.00;93818.00;5081407;28;20075;-90
2022/11/21 01:46:12;;;;;;;6.72;3.35;;;;;;;7.84;100.00;93820.91;5064274;28;20055;-88
2022/11/21 01:48:59;;;;;;;6.00;3.10;;;;;;;7.98;100.00;93823.75;5081705;28;20028;-89
2022/11/21 01:51:34;;;;;;;6.88;3.90;;;;;;;8.01;100.00;93825.84;5060032;28;20127;-89
2022/11/21 01:54:13;;;;;;;7.03;3.63;;;;;;;7.99;100.00;93826.09;5083016;28;21223;-89
2022/11/21 01:56:45;;;;;;;7.55;4.20;;;;;;;7.80;100.00;93822.47;5044648;28;20044;-90
2022/11/21 01:59:16;;;;;;;7.40;3.65;;;;;;;7.87;100.00;93809.94;5061009;28;20031;-89
2022/11/21 02:01:42;;;;;;;8.20;3.47;;;;;;;7.82;100.00;93799.50;5063515;28;20024;-89
2022/11/21 02:04:08;;;;;;;6.15;3.45;;;;;;;7.84;100.00;93789.59;5049461;28;20389;-89
2022/11/21 02:06:36;;;;;;;5.50;2.95;;;;;;;7.22;100.00;93788.59;5098930;28;20071;-89
2022/11/21 02:09:02;;;;;;;4.47;2.47;;;;;;;7.24;100.00;93790.94;5058978;28;20036;-90
2022/11/21 02:11:30;;;;;;;6.88;3.72;;;;;;;6.84;100.00;93787.25;5063970;28;20349;-89
2022/11/21 02:13:58;;;;;;;8.20;3.55;;;;;;;6.61;100.00;93795.25;5098854;28;20524;-90
2022/11/21 02:16:24;;;;;;;6.50;3.28;;;;;;;6.75;100.00;93790.34;5064159;28;20036;-89
2022/11/21 02:18:52;;;;;;;10.30;3.83;;;;;;;6.73;100.00;93786.44;5064439;28;20347;-89
2022/11/21 02:21:43;;;;;;;8.00;3.70;;;;;;;6.86;100.00;93792.97;5080442;28;20039;-89
2022/11/21 02:24:19;;;;;;;6.95;3.85;;;;;;;6.88;100.00;93786.44;5080810;28;20142;-91
2022/11/21 02:26:46;;;;;;;8.32;3.67;;;;;;;6.64;100.00;93786.16;5044972;28;20035;-90
2022/11/21 02:29:11;;;;;;;12.50;4.10;;;;;;;6.58;100.00;93782.75;5044275;28;20028;-90
2022/11/21 02:31:37;;;;;;;6.47;3.83;;;;;;;6.50;100.00;93785.84;5043145;28;20058;-90
2022/11/21 02:34:02;;;;;;;5.70;2.97;;;;;;;6.61;100.00;93779.66;5043817;28;20032;-90
2022/11/21 02:36:45;;;;;;;7.82;2.80;;;;;;;6.71;100.00;93770.28;5044249;28;20036;-90
2022/11/21 02:39:17;;;;;;;7.32;3.13;;;;;;;6.71;100.00;93778.09;5044094;28;20400;-90
2022/11/21 02:41:49;;;;;;;6.38;2.88;;;;;;;6.67;100.00;93774.44;5043887;28;20031;-90
2022/11/21 02:44:21;;;;;;;7.15;2.92;;;;;;;6.61;100.00;93771.84;5044101;28;20036;-90
2022/11/21 02:46:49;;;;;;;7.82;2.90;;;;;;;6.70;100.00;93766.13;5044006;28;20028;-89
2022/11/21 02:49:20;;;;;;;7.03;3.35;;;;;;;6.94;100.00;93758.59;5044253;28;20071;-89
2022/11/21 02:51:45;;;;;;;7.55;3.08;;;;;;;6.75;100.00;93760.94;5059333;28;20440;-90
2022/11/21 02:54:10;;;;;;;4.93;2.80;;;;;;;6.69;100.00;93764.56;5060571;28;20033;-90
2022/11/21 02:56:36;;;;;;;5.45;2.53;;;;;;;6.69;100.00;93765.34;5043078;28;20040;-90
2022/11/21 02:59:01;;;;;;;4.68;2.60;;;;;;;6.63;100.00;93761.94;5043628;28;20030;-90
2022/11/21 03:01:27;;;;;;;9.38;3.60;;;;;;;6.29;100.00;93756.38;5043432;28;20033;-90
2022/11/21 03:03:52;;;;;;;7.30;3.58;;;;;;;6.21;100.00;93755.81;5043557;28;20435;-90
2022/11/21 03:06:17;;;;;;;8.95;3.65;;;;;;;6.32;100.00;93755.88;5042922;28;20035;-91
2022/11/21 03:08:43;;;;;;;11.07;3.42;;;;;;;6.34;100.00;93754.59;5042893;28;20039;-90
2022/11/21 03:11:08;;;;;;;7.57;3.10;;;;;;;6.16;100.00;93750.59;5043034;28;20036;-89
2022/11/21 03:13:34;;;;;;;5.18;2.63;;;;;;;5.97;100.00;93752.06;5059977;28;20042;-91
2022/11/21 03:15:59;;;;;;;5.68;2.67;;;;;;;5.99;100.00;93755.19;5043708;28;20032;-91
2022/11/21 03:18:25;;;;;;;4.75;2.70;;;;;;;5.99;100.00;93745.56;5059808;28;20393;-91
2022/11/21 03:20:50;;;;;;;6.18;2.88;;;;;;;5.93;100.00;93749.19;5042817;28;20054;-91
2022/11/21 03:23:15;;;;;;;5.65;3.00;;;;;;;5.94;100.00;93746.31;5043835;28;20389;-90
2022/11/21 03:25:41;;;;;;;7.00;2.60;;;;;;;5.82;100.00;93747.56;5043491;28;20028;-90
2022/11/21 03:28:06;;;;;;;4.78;2.78;;;;;;;5.98;100.00;93751.78;5059611;28;20036;-90
2022/11/21 03:30:32;;;;;;;5.78;2.95;;;;;;;5.91;100.00;93749.41;5043081;28;20032;-90
2022/11/21 03:32:57;;;;;;;5.40;3.05;;;;;;;6.02;100.00;93744.31;5042738;28;20040;-90
2022/11/21 03:35:23;;;;;;;5.68;2.78;;;;;;;6.07;100.00;93737.31;5042873;28;20036;-90
2022/11/21 03:37:49;;;;;;;8.23;2.50;;;;;;;5.99;100.00;93735.16;5059722;28;20039;-91
2022/11/21 03:40:15;;;;;;;4.13;2.58;;;;;;;6.07;100.00;93746.91;5059282;28;20040;-90
2022/11/21 03:42:41;;;;;;;4.97;2.55;;;;;;;6.17;100.00;93746.16;5042576;28;20425;-90
2022/11/21 03:45:07;;;;;;;7.43;2.83;;;;;;;6.16;100.00;93742.81;5042659;28;20048;-92
2022/11/21 03:47:32;;;;;;;6.40;2.65;;;;;;;6.10;100.00;93746.44;5042596;28;20173;-89
2022/11/21 03:49:58;;;;;;;6.35;2.78;;;;;;;5.94;100.00;93748.91;5059426;28;20480;-89
2022/11/21 03:52:25;;;;;;;5.57;2.60;;;;;;;6.09;100.00;93744.84;5066600;28;20042;-89
2022/11/21 03:54:52;;;;;;;5.38;2.50;;;;;;;6.13;100.00;93743.31;5042984;28;20458;-89
2022/11/21 03:57:19;;;;;;;4.78;2.10;;;;;;;6.06;100.00;93734.94;5065849;28;20040;-89
2022/11/21 03:59:44;;;;;;;2.90;1.60;;;;;;;5.64;100.00;93733.94;5058855;28;20040;-89
2022/11/21 04:02:11;;;;;;;5.80;2.40;;;;;;;5.76;100.00;93738.94;5042248;28;20035;-88
2022/11/21 04:04:36;;;;;;;4.20;2.08;;;;;;;5.84;100.00;93743.69;5058976;28;20131;-89
2022/11/21 04:07:02;;;;;;;5.53;1.50;;;;;;;5.80;100.00;93738.19;5059757;28;20039;-89
2022/11/21 04:09:28;;;;;;;3.35;1.48;;;;;;;5.83;100.00;93736.13;5059163;28;20131;-89
2022/11/21 04:11:53;;;;;;;2.08;1.48;;;;;;;5.79;100.00;93731.44;5025762;28;20421;-89
2022/11/21 04:14:19;;;;;;;3.22;1.67;;;;;;;5.83;100.00;93726.50;5076107;28;20130;-89
2022/11/21 04:16:44;;;;;;;3.25;1.58;;;;;;;5.76;100.00;93729.34;5058748;28;20032;-89
2022/11/21 04:19:21;;;;;;;4.32;1.98;;;;;;;5.91;100.00;93731.22;5041672;28;20040;-89
2022/11/21 04:21:46;;;;;;;4.32;2.00;;;;;;;5.85;100.00;93732.25;5042046;28;20146;-89
2022/11/21 04:24:12;;;;;;;8.70;1.90;;;;;;;6.01;100.00;93740.13;5042431;28;20028;-89
2022/11/21 04:26:37;;;;;;;4.18;2.35;;;;;;;6.13;100.00;93742.53;5042025;28;20024;-90
2022/11/21 04:29:03;;;;;;;4.70;2.13;;;;;;;6.16;100.00;93740.19;5058686;28;20044;-89
2022/11/21 04:31:28;;;;;;;8.50;1.73;;;;;;;6.22;100.00;93739.16;5041726;28;20162;-89
2022/11/21 04:33:54;;;;;;;4.55;1.95;;;;;;;5.99;100.00;93742.19;5042437;28;20417;-89
2022/11/21 04:36:19;;;;;;;2.67;1.60;;;;;;;6.00;100.00;93739.31;5058680;28;20055;-89
2022/11/21 04:38:44;;;;;;;3.17;1.50;;;;;;;5.98;100.00;93741.38;5042353;28;20032;-89
2022/11/21 04:41:10;;;;;;;2.40;1.42;;;;;;;5.98;100.00;93746.59;5041933;28;20035;-89
2022/11/21 04:43:35;;;;;;;3.05;1.70;;;;;;;6.02;100.00;93742.47;5042358;28;20033;-88
2022/11/21 04:46:01;;;;;;;3.83;1.60;;;;;;;5.98;100.00;93743.22;5041958;28;20032;-90
2022/11/21 04:48:26;;;;;;;3.60;1.52;;;;;;;6.02;100.00;93746.91;5025665;28;20433;-89
2022/11/21 04:50:52;;;;;;;3.78;1.80;;;;;;;6.09;100.00;93747.44;5041773;28;20036;-89
2022/11/21 04:53:17;;;;;;;2.65;1.50;;;;;;;6.04;100.00;93744.81;5058658;28;20036;-89
2022/11/21 04:55:43;;;;;;;2.50;1.45;;;;;;;5.96;100.00;93740.88;5058687;28;20033;-89
2022/11/21 04:58:08;;;;;;;9.48;1.20;;;;;;;6.05;100.00;93744.59;5076222;28;20032;-89
2022/11/21 05:00:34;;;;;;;5.38;1.48;;;;;;;5.96;100.00;93745.28;5041444;28;20173;-89
2022/11/21 05:03:04;;;;;;;2.78;1.45;;;;;;;5.92;100.00;93752.81;5058410;28;20033;-89
2022/11/21 05:05:29;;;;;;;4.32;1.40;;;;;;;5.83;100.00;93742.13;5058463;28;20036;-89
2022/11/21 05:07:55;;;;;;;5.25;1.58;;;;;;;5.88;100.00;93742.13;5042050;28;20029;-89
2022/11/21 05:10:20;;;;;;;3.65;1.55;;;;;;;6.08;100.00;93741.47;5052131;28;20166;-90
2022/11/21 05:15:30;;;;;;;3.35;1.50;;;;;;;5.86;100.00;93736.41;5063294;28;20040;-89
2022/11/21 05:17:58;;;;;;;3.15;1.35;;;;;;;5.96;100.00;93743.47;5062247;28;20422;-90
2022/11/21 05:20:24;;;;;;;3.15;1.60;;;;;;;5.90;100.00;93736.69;5061800;28;20115;-89
2022/11/21 05:22:52;;;;;;;3.90;1.60;;;;;;;6.03;100.00;93736.25;5062489;28;20119;-89
2022/11/21 05:25:18;;;;;;;4.45;1.65;;;;;;;5.87;100.00;93731.97;5045568;28;20123;-89
2022/11/21 05:27:43;;;;;;;3.33;1.23;;;;;;;5.90;100.00;93737.47;5061917;28;20048;-89
2022/11/21 05:30:10;;;;;;;2.60;1.52;;;;;;;5.89;100.00;93735.88;5045231;28;20027;-89
2022/11/21 05:32:35;;;;;;;3.50;1.63;;;;;;;5.79;100.00;93731.44;5061895;28;20024;-90
2022/11/21 05:35:01;;;;;;;2.88;1.50;;;;;;;5.92;100.00;93734.63;5045022;28;20034;-89
2022/11/21 05:37:26;;;;;;;4.10;1.33;;;;;;;5.92;100.00;93737.97;5045398;28;20034;-89
2022/11/21 05:39:52;;;;;;;3.35;1.40;;;;;;;5.85;100.00;93736.66;5045359;28;20024;-89
2022/11/21 05:43:44;;;;;;;2.40;1.35;;;;;;;5.95;100.00;93734.09;5061127;28;20344;-89
2022/11/21 05:45:03;;;;;;;3.38;1.73;;;;;;;6.17;100.00;93733.16;5064494;28;20036;-89
2022/11/21 05:47:28;;;;;;;2.85;1.67;;;;;;;6.25;100.00;93721.50;5061606;28;20112;-90
2022/11/21 05:49:53;;;;;;;4.68;2.03;;;;;;;6.20;100.00;93723.03;5052846;28;20405;-89
2022/11/21 05:52:19;;;;;;;1.58;1.15;;;;;;;5.98;100.00;93720.59;5043551;28;20127;-89
2022/11/21 05:54:44;;;;;;;3.55;1.60;;;;;;;5.79;100.00;93712.44;5045171;28;20075;-89
2022/11/21 05:57:10;;;;;;;7.15;1.50;;;;;;;5.85;100.00;93719.25;5045315;28;20032;-89
2022/11/21 05:59:41;;;;;;;2.95;1.30;;;;;;;6.11;100.00;93711.59;5061269;28;20039;-90
2022/11/21 06:04:50;;;;;;;3.65;1.48;;;;;;;5.78;100.00;93698.69;5063892;28;20094;-89
2022/11/21 06:07:15;;;;;;;3.83;1.58;;;;;;;5.67;100.00;93699.66;5061172;28;20036;-90
2022/11/21 06:09:41;;;;;;;2.58;1.52;;;;;;;5.73;100.00;93696.03;5027885;28;20036;-89
2022/11/21 06:12:06;;;;;;;3.42;1.60;;;;;;;5.78;100.00;93693.47;5044314;28;20028;-89
2022/11/21 06:14:32;;;;;;;2.22;1.30;;;;;;;5.92;100.00;93708.63;5044456;28;20028;-88
2022/11/21 06:16:57;;;;;;;4.43;1.35;;;;;;;6.09;100.00;93705.81;5044506;28;20036;-88
2022/11/21 06:19:22;;;;;;;2.03;1.27;;;;;;;6.03;100.00;93710.25;5072742;28;20070;-89
2022/11/21 06:21:48;;;;;;;2.05;1.20;;;;;;;5.97;100.00;93706.03;5047379;28;20035;-88
2022/11/21 06:24:14;;;;;;;2.88;1.27;;;;;;;5.93;100.00;93710.19;5078404;28;20036;-88
2022/11/21 06:26:39;;;;;;;3.58;1.42;;;;;;;6.02;100.00;93711.25;5042804;28;20037;-89
2022/11/21 06:29:05;;;;;;;5.75;1.25;;;;;;;6.13;100.00;93704.31;5044213;28;20029;-89
2022/11/21 06:31:31;;;;;;;2.38;1.48;;;;;;;6.17;100.00;93700.16;5060159;28;20024;-88
2022/11/21 06:33:57;;;;;;;1.98;1.23;;;;;;;6.15;100.00;93691.03;5043723;28;20044;-89
2022/11/21 06:36:24;;;;;;;1.60;1.10;;;;;;;6.38;100.00;93697.59;5043880;28;20388;-88
2022/11/21 06:38:52;;;;;;;3.85;1.45;;;;;;;6.43;100.00;93720.25;5043625;28;20032;-89
2022/11/21 06:41:19;;;;;;;2.55;1.30;;;;;;;6.51;100.00;93722.34;5043237;28;20037;-89
2022/11/21 06:43:45;;;;;;;2.47;1.13;;;;;;;6.68;100.00;93736.97;5060340;28;20429;-89
2022/11/21 06:46:11;;;;;;;3.42;1.60;;;;;;;6.83;100.00;93741.41;5043887;28;20060;-89
2022/11/21 06:48:38;;;;;;;2.30;1.40;;;;;;;6.89;100.00;93741.16;5060296;28;20408;-90
2022/11/21 06:51:06;;;;;;;2.58;1.25;;;;;;;6.93;100.00;93752.63;5043424;28;20314;-89
2022/11/21 06:53:33;;;;;;;2.50;1.38;;;;;;;7.01;100.00;93756.53;5077690;28;20430;-89
2022/11/21 06:55:59;;;;;;;3.53;1.50;;;;;;;7.05;100.00;93769.84;5027527;28;20033;-88
2022/11/21 06:58:26;;;;;;;3.17;1.25;;;;;;;7.17;100.00;93769.56;5060281;28;20035;-89
2022/11/21 07:00:51;;;;;;;2.45;1.20;;;;;;;7.21;100.00;93776.63;5059843;28;20322;-91
2022/11/21 07:03:17;;;;;;;2.45;1.10;;;;;;;7.40;100.00;93765.66;5042946;28;20036;-91
2022/11/21 07:05:42;;;;;;;3.67;1.30;;;;;;;7.62;100.00;93769.81;5043486;28;20042;-91
2022/11/21 07:08:08;;;;;;;3.08;1.73;;;;;;;7.71;100.00;93783.09;5043325;28;20066;-91
2022/11/21 07:10:34;;;;;;;2.35;1.38;;;;;;;7.67;100.00;93785.44;5042983;28;20028;-90
2022/11/21 07:15:45;;;;;;;2.97;1.33;;;;;;;7.88;100.00;93781.00;5077485;28;20036;-91
2022/11/21 07:18:11;;;;;;;2.00;1.23;;;;;;;8.02;100.00;93780.44;5079466;28;20035;-91
2022/11/21 07:20:36;;;;;;;4.32;1.40;;;;;;;8.24;100.00;93776.69;5062975;28;20023;-90
2022/11/21 07:23:02;;;;;;;2.13;1.25;;;;;;;8.37;100.00;93775.38;5080108;28;20043;-90
2022/11/21 07:25:27;;;;;;;6.72;1.30;;;;;;;8.42;100.00;93768.31;5079449;28;20036;-91
2022/11/21 07:27:53;;;;;;;2.20;1.08;;;;;;;8.33;100.00;93780.34;5079343;28;20451;-89
2022/11/21 07:30:19;;;;;;;2.95;1.00;;;;;;;8.65;100.00;93776.56;5079042;28;20032;-88
2022/11/21 07:32:44;;;;;;;4.85;1.00;;;;;;;8.97;97.67;93774.56;5078752;28;20429;-88
2022/11/21 07:35:09;;;;;;;3.35;0.90;;;;;;;9.15;94.44;93781.75;5062817;28;20306;-89
2022/11/21 07:37:39;;;;;;;1.90;1.00;;;;;;;9.31;89.87;93782.44;5078872;28;20049;-89
2022/11/21 07:40:06;;;;;;;2.05;0.75;;;;;;;9.46;87.26;93778.16;5060577;28;20032;-89
2022/11/21 07:42:32;;;;;;;3.38;1.08;;;;;;;9.18;87.04;93777.81;5078988;28;20028;-88
2022/11/21 07:44:58;;;;;;;1.75;0.80;;;;;;;9.15;92.04;93768.69;5079349;28;20036;-88
2022/11/21 07:47:24;;;;;;;1.42;1.00;;;;;;;9.26;92.59;93779.06;5079039;28;20031;-88
2022/11/21 07:49:49;;;;;;;2.42;1.38;;;;;;;8.94;91.24;93781.09;5067609;28;20436;-88
2022/11/21 07:52:14;;;;;;;1.45;0.93;;;;;;;9.14;95.97;93780.19;5058732;28;20089;-88
2022/11/21 07:54:40;;;;;;;2.58;0.88;;;;;;;9.43;86.53;93773.47;5059149;28;20032;-89
2022/11/21 07:57:05;;;;;;;8.13;1.00;;;;;;;9.65;85.46;93780.88;5042304;28;20122;-88
2022/11/21 07:59:32;;;;;;;1.50;0.95;;;;;;;9.65;85.09;93764.38;5065005;28;20031;-89
2022/11/21 08:01:57;;;;;;;2.03;1.00;;;;;;;9.90;96.84;93766.75;5077711;28;20032;-89
2022/11/21 08:04:23;;;;;;;5.35;1.48;;;;;;;9.95;94.28;93762.50;5078774;28;20058;-89
2022/11/21 08:06:49;;;;;;;3.15;1.38;;;;;;;9.86;91.58;93765.75;5062119;28;20028;-88
2022/11/21 08:09:14;;;;;;;2.35;1.45;;;;;;;9.85;91.10;93766.03;5078173;28;20040;-89
2022/11/21 08:11:39;;;;;;;1.85;1.42;;;;;;;9.40;100.00;93768.78;5078712;28;20032;-89
2022/11/21 08:14:05;;;;;;;5.25;1.75;;;;;;;9.48;100.00;93766.38;5062490;28;20052;-88
2022/11/21 08:16:31;;;;;;;3.53;1.35;;;;;;;9.47;100.00;93758.78;5062019;28;20381;-88
2022/11/21 08:19:00;;;;;;;3.03;1.45;;;;;;;9.45;100.00;93758.28;5062432;28;20035;-89
2022/11/21 08:21:26;;;;;;;2.95;1.20;;;;;;;9.22;100.00;93744.09;5061873;28;20032;-89
2022/11/21 08:23:52;;;;;;;2.60;1.42;;;;;;;9.28;99.71;93748.22;5078889;28;20059;-89
2022/11/21 08:26:17;;;;;;;4.15;1.30;;;;;;;9.09;100.00;93743.66;5078889;28;20352;-88
2022/11/21 08:28:43;;;;;;;5.13;1.30;;;;;;;9.24;100.00;93741.97;5079069;28;20031;-89
2022/11/21 08:31:09;;;;;;;2.30;1.42;;;;;;;9.41;100.00;93749.44;5078503;28;20068;-88
2022/11/21 08:33:34;;;;;;;4.60;1.50;;;;;;;9.17;100.00;93744.91;5072632;28;20041;-88
2022/11/21 08:36:05;;;;;;;2.58;1.20;;;;;;;9.44;97.25;93733.19;5058682;28;20040;-88
2022/11/21 08:38:30;;;;;;;4.22;1.05;;;;;;;9.58;96.00;93741.16;5042374;28;20036;-88
2022/11/21 08:43:39;;;;;;;2.13;1.20;;;;;;;9.98;100.00;93746.28;5075432;28;20058;-89
2022/11/21 08:46:05;;;;;;;1.70;1.08;;;;;;;10.03;100.00;93735.75;5078764;28;20348;-89
2022/11/21 08:48:30;;;;;;;1.58;1.17;;;;;;;10.06;100.00;93731.81;5078740;28;20024;-89
2022/11/21 08:50:56;;;;;;;3.10;1.10;;;;;;;10.25;96.94;93735.25;5081041;28;20031;-90
2022/11/21 08:53:22;;;;;;;3.63;1.20;;;;;;;10.21;100.00;93739.47;5065708;28;20379;-89
2022/11/21 08:55:47;;;;;;;1.73;0.95;;;;;;;10.44;100.00;93734.50;5082381;28;20129;-88
2022/11/21 08:58:13;;;;;;;3.42;1.00;;;;;;;10.49;97.51;93733.66;5100570;28;20051;-89
2022/11/21 09:00:38;;;;;;;2.28;0.98;;;;;;;10.56;94.51;93736.72;5082070;28;20122;-88
2022/11/21 09:03:04;;;;;;;2.17;1.13;;;;;;;10.57;92.12;93738.28;5082280;28;20031;-89
2022/11/21 09:05:30;;;;;;;2.17;0.90;;;;;;;10.70;95.03;93729.72;5065956;28;20467;-88
2022/11/21 09:07:56;;;;;;;3.45;1.00;;;;;;;10.78;93.88;93736.19;5082319;28;20121;-88
2022/11/21 09:10:22;;;;;;;1.98;1.15;;;;;;;10.90;94.00;93735.75;5081799;28;20405;-88
2022/11/21 09:12:47;;;;;;;1.90;1.10;;;;;;;11.00;99.93;93730.34;5082178;28;20023;-89
2022/11/21 09:18:03;;;;;;;1.60;0.80;;;;;;;11.31;100.00;93726.47;5099575;28;20050;-88
2022/11/21 09:20:29;;;;;;;1.95;1.00;;;;;;;11.41;96.53;93726.31;5064794;28;20047;-89
2022/11/21 09:22:55;;;;;;;1.65;1.10;;;;;;;11.50;97.56;93720.41;5065282;28;20085;-89
2022/11/21 09:25:20;;;;;;;1.27;0.82;;;;;;;11.54;97.26;93718.75;5065216;28;20044;-88
2022/11/21 09:27:46;;;;;;;10.77;1.30;;;;;;;11.57;96.49;93723.44;5081869;28;20055;-89
2022/11/21 09:30:11;;;;;;;4.97;0.98;;;;;;;11.57;94.77;93718.19;5098912;28;20047;-88
2022/11/21 09:32:37;;;;;;;1.52;1.00;;;;;;;11.52;96.57;93715.66;5055503;28;20458;-89
2022/11/21 09:35:03;;;;;;;3.22;1.08;;;;;;;11.45;90.32;93713.41;5061596;28;20033;-88
2022/11/21 09:37:29;;;;;;;2.30;1.20;;;;;;;11.54;99.39;93713.50;5061675;28;20058;-88
2022/11/21 09:39:54;;;;;;;3.22;0.98;;;;;;;11.72;100.00;93727.63;5088952;28;20032;-88
2022/11/21 09:42:30;;;;;;;2.60;1.00;;;;;;;11.95;95.46;93727.75;5061015;28;20094;-89
2022/11/21 09:45:07;;;;;;;2.05;1.20;;;;;;;12.02;91.04;93723.69;5079248;28;20087;-88
2022/11/21 09:47:36;;;;;;;3.17;1.00;;;;;;;12.12;88.43;93716.69;5044828;28;20345;-89
2022/11/21 09:50:03;;;;;;;1.80;1.05;;;;;;;12.23;90.45;93720.69;5028370;28;20040;-88
2022/11/21 09:52:45;;;;;;;2.38;1.20;;;;;;;12.37;87.33;93709.38;5078751;28;20029;-89
2022/11/21 09:55:25;;;;;;;2.22;1.10;;;;;;;12.43;82.28;93702.94;5061278;28;20032;-89
2022/11/21 09:57:50;;;;;;;1.15;0.80;;;;;;;12.49;83.34;93701.00;5061060;28;20068;-88
2022/11/21 10:00:21;;;;;;;2.22;1.10;;;;;;;12.64;85.33;93710.41;5089598;28;20052;-89
2022/11/21 10:02:47;;;;;;;1.00;0.90;;;;;;;12.62;81.31;93702.03;5044586;28;20032;-90
2022/11/21 10:05:14;;;;;;;1.40;0.90;;;;;;;12.78;82.78;93690.13;5061138;28;20349;-91
2022/11/21 10:07:39;;;;;;;2.80;1.00;;;;;;;12.91;85.41;93690.34;5060530;28;20036;-89
2022/11/21 10:10:18;;;;;;;1.98;0.70;;;;;;;13.05;73.20;93690.31;5063732;28;21014;-90
2022/11/21 10:12:46;;;;;;;2.40;0.80;;;;;;;13.08;69.89;93690.50;5099341;28;20121;-90
2022/11/21 10:15:27;;;;;;;2.50;1.10;;;;;;;13.18;71.02;93686.06;5076220;28;20035;-90
2022/11/21 10:18:23;;;;;;;1.38;0.88;;;;;;;13.20;70.23;93678.63;5078500;28;20032;-90
2022/11/21 10:20:57;;;;;;;2.10;0.82;;;;;;;13.14;71.86;93678.75;5078064;28;20028;-90
2022/11/21 10:23:51;;;;;;;2.22;1.10;;;;;;;13.13;74.55;93677.22;5044374;28;20020;-89
2022/11/21 10:26:38;;;;;;;2.47;1.20;;;;;;;13.01;73.36;93669.88;5079094;28;20036;-90
2022/11/21 10:29:22;;;;;;;2.33;0.90;;;;;;;13.20;64.62;93663.63;5060926;28;20271;-92
2022/11/21 10:31:48;;;;;;;1.77;0.90;;;;;;;13.13;57.66;93656.16;5058231;28;20024;-90
2022/11/21 10:34:18;;;;;;;1.70;0.90;;;;;;;13.40;60.47;93648.41;5060680;28;20035;-89
2022/11/21 10:36:48;;;;;;;2.25;0.85;;;;;;;13.46;68.37;93643.81;5060520;28;20037;-90
2022/11/21 10:39:19;;;;;;;5.57;1.17;;;;;;;13.45;66.26;93639.66;5085119;28;20459;-89
2022/11/21 10:41:58;;;;;;;2.45;0.80;;;;;;;13.46;64.07;93635.94;5093244;28;20062;-88
2022/11/21 10:47:26;;;;;;;3.05;0.70;;;;;;;13.49;60.96;93624.81;5068918;28;20039;-89
2022/11/21 10:50:13;;;;;;;2.38;0.77;;;;;;;13.49;57.20;93619.56;5053448;28;20127;-92
2022/11/21 10:52:44;;;;;;;1.20;0.88;;;;;;;13.56;58.81;93614.63;5098139;28;20347;-89
2022/11/21 10:55:12;;;;;;;6.38;1.10;;;;;;;13.60;61.30;93607.66;5080130;28;20050;-91
2022/11/21 10:57:46;;;;;;;1.88;1.00;;;;;;;13.74;60.83;93607.56;5080421;28;20470;-90
2022/11/21 11:00:11;;;;;;;1.88;0.80;;;;;;;13.78;61.90;93600.59;5063038;28;20035;-90
2022/11/21 11:02:40;;;;;;;1.13;0.70;;;;;;;13.81;60.71;93586.06;5097988;28;20035;-90
2022/11/21 11:05:15;;;;;;;3.20;0.70;;;;;;;13.90;57.86;93589.47;5063457;28;20089;-90
2022/11/21 11:07:41;;;;;;;1.42;0.80;;;;;;;13.94;57.65;93584.38;5098259;28;20028;-89
2022/11/21 11:10:20;;;;;;;1.35;0.80;;;;;;;14.09;56.40;93577.91;5079948;28;20031;-90
2022/11/21 11:15:32;;;;;;;1.35;0.80;;;;;;;14.31;53.47;93571.72;5082560;28;20038;-90
2022/11/21 11:18:03;;;;;;;3.80;0.80;;;;;;;14.31;52.47;93569.09;5097767;28;20036;-91
2022/11/21 11:20:40;;;;;;;1.17;0.80;;;;;;;14.49;49.74;93554.03;5062796;28;20491;-90
2022/11/21 11:23:22;;;;;;;2.75;0.50;;;;;;;14.39;44.59;93541.94;5063137;28;20028;-90
2022/11/21 11:25:50;;;;;;;0.77;0.40;;;;;;;14.52;44.88;93531.53;5062740;28;20044;-90
2022/11/21 11:28:24;;;;;;;1.02;0.55;;;;;;;14.27;46.94;93542.56;5062693;28;20039;-90
2022/11/21 11:30:54;;;;;;;2.17;0.63;;;;;;;14.54;45.52;93539.91;5097190;28;20028;-91
2022/11/21 11:33:39;;;;;;;1.65;0.68;;;;;;;14.68;43.06;93523.94;5079270;28;20102;-90
2022/11/21 11:36:30;;;;;;;0.70;0.60;;;;;;;14.76;42.15;93527.66;5079234;28;20125;-90
2022/11/21 11:38:58;;;;;;;0.75;0.57;;;;;;;14.62;44.10;93527.81;5079795;28;20051;-90
2022/11/21 11:41:29;;;;;;;1.63;0.68;;;;;;;14.86;44.80;93524.69;5079122;28;20028;-90
2022/11/21 11:50:11;;;;;;;0.98;0.52;;;;;;;15.00;44.70;93518.44;5082055;28;20344;-91
2022/11/21 11:53:01;;;;;;;1.30;0.80;;;;;;;15.06;42.50;93510.06;5080549;28;20034;-90
2022/11/21 11:56:04;;;;;;;1.00;0.65;;;;;;;15.05;44.68;93503.19;5079222;28;20380;-90
2022/11/21 11:58:43;;;;;;;1.60;0.57;;;;;;;14.96;45.01;93510.38;5079315;28;20035;-90
2022/11/21 12:01:26;;;;;;;0.73;0.50;;;;;;;14.79;45.48;93513.84;5079341;28;20035;-90
2022/11/21 12:04:23;;;;;;;1.17;0.63;;;;;;;14.84;45.94;93503.91;5062881;28;20036;-90